createdAt,value
2017-10-11T00:00:49.040Z,0
2017-10-11T00:01:48.719Z,0
2017-10-11T00:02:48.719Z,0
2017-10-11T00:03:49.355Z,0
2017-10-11T00:04:49.037Z,0
2017-10-11T00:05:48.717Z,0
2017-10-11T00:06:49.032Z,0
2017-10-11T00:07:48.709Z,0
2017-10-11T00:08:48.709Z,0
2017-10-11T00:09:49.033Z,0
2017-10-11T00:10:49.033Z,0
2017-10-11T00:11:48.714Z,0
2017-10-11T00:12:48.712Z,0
2017-10-11T00:13:49.031Z,0
2017-10-11T00:14:48.711Z,0
2017-10-11T00:15:49.085Z,0
2017-10-11T00:16:49.023Z,0
2017-10-11T00:17:48.389Z,0
2017-10-11T00:18:49.048Z,0
2017-10-11T00:19:49.021Z,0
2017-10-11T00:20:49.387Z,0
2017-10-11T00:21:49.018Z,0
2017-10-11T00:22:49.337Z,0
2017-10-11T00:23:48.709Z,0
2017-10-11T00:24:48.693Z,0
2017-10-11T00:25:49.405Z,0
2017-10-11T00:26:49.016Z,0
2017-10-11T00:27:49.347Z,0
2017-10-11T00:28:49.036Z,0
2017-10-11T00:29:49.022Z,0
2017-10-11T00:30:50.083Z,0
2017-10-11T00:31:48.685Z,0
2017-10-11T00:32:49.016Z,0
2017-10-11T00:33:49.331Z,0
2017-10-11T00:34:49.326Z,0
2017-10-11T00:35:48.690Z,0
2017-10-11T00:36:48.692Z,0
2017-10-11T00:37:48.688Z,0
2017-10-11T00:38:49.324Z,0
2017-10-11T00:39:49.335Z,0
2017-10-11T00:40:49.011Z,0
2017-10-11T00:41:48.362Z,0
2017-10-11T00:42:48.995Z,0
2017-10-11T00:43:49.009Z,0
2017-10-11T00:44:48.676Z,0
2017-10-11T00:45:51.079Z,0
2017-10-11T00:46:48.992Z,0
2017-10-11T00:47:48.683Z,0
2017-10-11T00:48:48.686Z,0
2017-10-11T00:49:48.673Z,0
2017-10-11T00:50:48.403Z,0
2017-10-11T00:51:49.318Z,0
2017-10-11T00:52:48.990Z,0
2017-10-11T00:53:48.993Z,0
2017-10-11T00:54:48.675Z,0
2017-10-11T00:55:48.996Z,0
2017-10-11T00:56:48.992Z,0
2017-10-11T00:57:49.016Z,0
2017-10-11T00:58:48.334Z,0
2017-10-11T00:59:49.000Z,0
2017-10-11T01:00:50.788Z,0
2017-10-11T01:01:48.989Z,0
2017-10-11T01:02:48.986Z,0
2017-10-11T01:03:48.674Z,0
2017-10-11T01:04:49.303Z,0
2017-10-11T01:05:48.646Z,0
2017-10-11T01:06:48.645Z,0
2017-10-11T01:07:48.646Z,0
2017-10-11T01:08:48.968Z,0
2017-10-11T01:09:48.647Z,0
2017-10-11T01:10:48.997Z,0
2017-10-11T01:11:48.974Z,0
2017-10-11T01:12:48.644Z,0
2017-10-11T01:13:48.646Z,0
2017-10-11T01:14:49.275Z,0
2017-10-11T01:15:48.658Z,0
2017-10-11T01:16:48.654Z,0
2017-10-11T01:17:48.957Z,0
2017-10-11T01:18:49.287Z,0
2017-10-11T01:19:49.278Z,0
2017-10-11T01:20:49.005Z,0
2017-10-11T01:21:48.983Z,0
2017-10-11T01:22:48.960Z,0
2017-10-11T01:23:48.646Z,0
2017-10-11T01:24:48.951Z,0
2017-10-11T01:25:48.678Z,0
2017-10-11T01:26:48.963Z,0
2017-10-11T01:27:48.625Z,0
2017-10-11T01:28:48.971Z,0
2017-10-11T01:29:48.987Z,0
2017-10-11T01:30:49.090Z,0
2017-10-11T01:31:48.628Z,0
2017-10-11T01:32:48.954Z,0
2017-10-11T01:33:48.627Z,0
2017-10-11T01:34:48.309Z,0
2017-10-11T01:35:49.310Z,0
2017-10-11T01:36:48.625Z,0
2017-10-11T01:37:48.947Z,0
2017-10-11T01:38:48.630Z,0
2017-10-11T01:39:48.610Z,0
2017-10-11T01:40:48.692Z,0
2017-10-11T01:41:48.629Z,0
2017-10-11T01:42:49.253Z,0
2017-10-11T01:43:49.257Z,0
2017-10-11T01:44:48.934Z,0
2017-10-11T01:45:49.257Z,0
2017-10-11T01:46:49.255Z,0
2017-10-11T01:47:48.617Z,0
2017-10-11T01:48:48.609Z,0
2017-10-11T01:49:48.951Z,0
2017-10-11T01:50:48.939Z,0
2017-10-11T01:51:48.939Z,0
2017-10-11T01:52:48.939Z,0
2017-10-11T01:53:48.940Z,0
2017-10-11T01:54:48.938Z,0
2017-10-11T01:55:49.281Z,0
2017-10-11T01:56:48.940Z,0
2017-10-11T01:57:49.251Z,0
2017-10-11T01:58:49.263Z,0
2017-10-11T01:59:48.293Z,0
2017-10-11T02:00:48.710Z,0
2017-10-11T02:01:48.943Z,0
2017-10-11T02:02:48.927Z,0
2017-10-11T02:03:48.945Z,0
2017-10-11T02:04:48.932Z,0
2017-10-11T02:05:48.948Z,0
2017-10-11T02:06:49.248Z,0
2017-10-11T02:07:48.947Z,0
2017-10-11T02:08:48.600Z,0
2017-10-11T02:09:48.941Z,0
2017-10-11T02:10:48.990Z,0
2017-10-11T02:11:48.917Z,0
2017-10-11T02:12:48.923Z,0
2017-10-11T02:13:48.927Z,0
2017-10-11T02:14:48.926Z,0
2017-10-11T02:15:48.599Z,0
2017-10-11T02:16:48.607Z,0
2017-10-11T02:17:48.917Z,0
2017-10-11T02:18:48.601Z,0
2017-10-11T02:19:48.595Z,0
2017-10-11T02:20:49.011Z,0
2017-10-11T02:21:49.246Z,0
2017-10-11T02:22:48.910Z,0
2017-10-11T02:23:48.906Z,0
2017-10-11T02:24:49.232Z,0
2017-10-11T02:25:49.255Z,0
2017-10-11T02:26:48.914Z,0
2017-10-11T02:27:49.235Z,0
2017-10-11T02:28:48.595Z,0
2017-10-11T02:29:48.613Z,0
2017-10-11T02:30:49.300Z,0
2017-10-11T02:31:49.380Z,0
2017-10-11T02:32:49.254Z,0
2017-10-11T02:33:49.222Z,0
2017-10-11T02:34:48.579Z,0
2017-10-11T02:35:48.615Z,0
2017-10-11T02:36:48.919Z,0
2017-10-11T02:37:48.611Z,0
2017-10-11T02:38:48.906Z,0
2017-10-11T02:39:48.902Z,0
2017-10-11T02:40:49.240Z,0
2017-10-11T02:41:48.894Z,0
2017-10-11T02:42:48.576Z,0
2017-10-11T02:43:48.580Z,0
2017-10-11T02:44:48.896Z,0
2017-10-11T02:45:48.579Z,0
2017-10-11T02:46:49.693Z,0
2017-10-11T02:47:49.225Z,0
2017-10-11T02:48:48.245Z,0
2017-10-11T02:49:48.253Z,0
2017-10-11T02:50:48.922Z,0
2017-10-11T02:51:48.899Z,0
2017-10-11T02:52:48.900Z,0
2017-10-11T02:53:48.562Z,0
2017-10-11T02:54:48.902Z,0
2017-10-11T02:55:48.920Z,0
2017-10-11T02:56:48.889Z,0
2017-10-11T02:57:48.916Z,0
2017-10-11T02:58:48.563Z,0
2017-10-11T02:59:49.225Z,0
2017-10-11T03:00:48.915Z,0
2017-10-11T03:01:49.404Z,0
2017-10-11T03:02:48.231Z,0
2017-10-11T03:03:48.886Z,0
2017-10-11T03:04:48.879Z,0
2017-10-11T03:05:48.594Z,0
2017-10-11T03:06:48.881Z,0
2017-10-11T03:07:48.554Z,0
2017-10-11T03:08:48.887Z,0
2017-10-11T03:09:48.552Z,0
2017-10-11T03:10:48.588Z,0
2017-10-11T03:11:48.232Z,0
2017-10-11T03:12:48.562Z,0
2017-10-11T03:13:49.208Z,0
2017-10-11T03:14:48.552Z,0
2017-10-11T03:15:48.632Z,0
2017-10-11T03:16:50.702Z,0
2017-10-11T03:17:48.889Z,0
2017-10-11T03:18:48.871Z,0
2017-10-11T03:19:47.892Z,0
2017-10-11T03:20:49.180Z,0
2017-10-11T03:21:48.861Z,0
2017-10-11T03:22:48.216Z,0
2017-10-11T03:23:48.864Z,0
2017-10-11T03:24:48.218Z,0
2017-10-11T03:25:48.559Z,0
2017-10-11T03:26:48.856Z,0
2017-10-11T03:27:48.535Z,0
2017-10-11T03:28:48.527Z,0
2017-10-11T03:29:48.537Z,0
2017-10-11T03:30:48.878Z,0
2017-10-11T03:31:49.629Z,0
2017-10-11T03:32:48.858Z,0
2017-10-11T03:33:48.845Z,0
2017-10-11T03:34:48.853Z,0
2017-10-11T03:35:48.574Z,0
2017-10-11T03:36:48.854Z,0
2017-10-11T03:37:48.854Z,0
2017-10-11T03:38:48.203Z,0
2017-10-11T03:39:48.527Z,0
2017-10-11T03:40:49.234Z,0
2017-10-11T03:41:48.518Z,0
2017-10-11T03:42:48.206Z,0
2017-10-11T03:43:48.528Z,0
2017-10-11T03:44:48.846Z,0
2017-10-11T03:45:48.838Z,0
2017-10-11T03:46:49.693Z,0
2017-10-11T03:47:48.520Z,0
2017-10-11T03:48:48.204Z,0
2017-10-11T03:49:48.529Z,0
2017-10-11T03:50:48.899Z,0
2017-10-11T03:51:48.826Z,0
2017-10-11T03:52:48.858Z,0
2017-10-11T03:53:49.197Z,0
2017-10-11T03:54:48.873Z,0
2017-10-11T03:55:48.928Z,0
2017-10-11T03:56:48.517Z,0
2017-10-11T03:57:48.514Z,0
2017-10-11T03:58:48.836Z,0
2017-10-11T03:59:48.920Z,0
2017-10-11T04:00:50.337Z,0
2017-10-11T04:01:49.408Z,0
2017-10-11T04:02:48.189Z,0
2017-10-11T04:03:48.181Z,0
2017-10-11T04:04:49.142Z,0
2017-10-11T04:05:48.506Z,0
2017-10-11T04:06:48.830Z,0
2017-10-11T04:07:48.812Z,0
2017-10-11T04:08:48.824Z,0
2017-10-11T04:09:48.502Z,0
2017-10-11T04:10:48.561Z,0
2017-10-11T04:11:48.839Z,0
2017-10-11T04:12:48.494Z,0
2017-10-11T04:13:49.128Z,0
2017-10-11T04:14:48.600Z,0
2017-10-11T04:15:48.532Z,0
2017-10-11T04:16:48.803Z,0
2017-10-11T04:17:49.118Z,0
2017-10-11T04:18:49.123Z,0
2017-10-11T04:19:48.161Z,0
2017-10-11T04:20:48.854Z,0
2017-10-11T04:21:48.797Z,0
2017-10-11T04:22:48.810Z,0
2017-10-11T04:23:48.165Z,0
2017-10-11T04:24:49.117Z,0
2017-10-11T04:25:49.123Z,0
2017-10-11T04:26:49.116Z,0
2017-10-11T04:27:48.795Z,0
2017-10-11T04:28:48.801Z,0
2017-10-11T04:29:48.792Z,0
2017-10-11T04:30:48.896Z,0
2017-10-11T04:31:49.179Z,0
2017-10-11T04:32:50.249Z,0
2017-10-11T04:33:48.468Z,0
2017-10-11T04:34:48.463Z,0
2017-10-11T04:35:48.835Z,0
2017-10-11T04:36:48.784Z,0
2017-10-11T04:37:48.790Z,0
2017-10-11T04:38:48.783Z,0
2017-10-11T04:39:48.445Z,0
2017-10-11T04:40:48.787Z,0
2017-10-11T04:41:49.089Z,0
2017-10-11T04:42:48.788Z,0
2017-10-11T04:43:48.782Z,0
2017-10-11T04:44:49.083Z,0
2017-10-11T04:45:48.497Z,0
2017-10-11T04:46:48.453Z,0
2017-10-11T04:47:52.167Z,0
2017-10-11T04:48:48.760Z,0
2017-10-11T04:49:48.432Z,0
2017-10-11T04:50:48.814Z,0
2017-10-11T04:51:48.101Z,0
2017-10-11T04:52:48.431Z,0
2017-10-11T04:53:48.431Z,0
2017-10-11T04:54:48.766Z,0
2017-10-11T04:55:48.472Z,0
2017-10-11T04:56:48.746Z,0
2017-10-11T04:57:49.077Z,0
2017-10-11T04:58:48.434Z,0
2017-10-11T04:59:49.068Z,0
2017-10-11T05:00:48.790Z,0
2017-10-11T05:01:49.080Z,0
2017-10-11T05:02:50.848Z,0
2017-10-11T05:03:48.737Z,0
2017-10-11T05:04:49.070Z,0
2017-10-11T05:05:48.738Z,0
2017-10-11T05:06:48.114Z,0
2017-10-11T05:07:48.403Z,0
2017-10-11T05:08:48.727Z,0
2017-10-11T05:09:48.743Z,0
2017-10-11T05:10:48.506Z,0
2017-10-11T05:11:48.725Z,0
2017-10-11T05:12:49.049Z,0
2017-10-11T05:13:48.400Z,0
2017-10-11T05:14:48.391Z,0
2017-10-11T05:15:48.722Z,0
2017-10-11T05:16:48.400Z,0
2017-10-11T05:17:48.758Z,0
2017-10-11T05:18:48.735Z,0
2017-10-11T05:19:48.081Z,0
2017-10-11T05:20:49.105Z,0
2017-10-11T05:21:48.705Z,0
2017-10-11T05:22:49.070Z,0
2017-10-11T05:23:48.385Z,0
2017-10-11T05:24:49.025Z,0
2017-10-11T05:25:48.392Z,0
2017-10-11T05:26:48.382Z,0
2017-10-11T05:27:48.699Z,0
2017-10-11T05:28:48.706Z,0
2017-10-11T05:29:49.015Z,0
2017-10-11T05:30:48.381Z,0
2017-10-11T05:31:48.380Z,0
2017-10-11T05:32:53.448Z,0
2017-10-11T05:33:49.059Z,0
2017-10-11T05:34:48.700Z,0
2017-10-11T05:35:48.770Z,0
2017-10-11T05:36:49.020Z,0
2017-10-11T05:37:48.696Z,0
2017-10-11T05:38:48.364Z,0
2017-10-11T05:39:48.430Z,0
2017-10-11T05:40:48.717Z,0
2017-10-11T05:41:48.698Z,0
2017-10-11T05:42:48.349Z,0
2017-10-11T05:43:48.362Z,0
2017-10-11T05:44:48.366Z,0
2017-10-11T05:45:48.411Z,0
2017-10-11T05:46:49.006Z,0
2017-10-11T05:47:49.010Z,5
2017-10-11T05:48:48.738Z,5
2017-10-11T05:49:48.667Z,5
2017-10-11T05:50:49.013Z,5
2017-10-11T05:51:49.010Z,5
2017-10-11T05:52:48.994Z,5
2017-10-11T05:53:48.344Z,5
2017-10-11T05:54:48.338Z,5
2017-10-11T05:55:49.074Z,5
2017-10-11T05:56:48.670Z,10
2017-10-11T05:57:48.979Z,10
2017-10-11T05:58:48.665Z,10
2017-10-11T05:59:48.346Z,10
2017-10-11T06:00:48.672Z,10
2017-10-11T06:01:48.653Z,10
2017-10-11T06:02:48.330Z,10
2017-10-11T06:03:49.852Z,10
2017-10-11T06:04:48.651Z,10
2017-10-11T06:05:48.713Z,10
2017-10-11T06:06:48.684Z,15
2017-10-11T06:07:48.989Z,15
2017-10-11T06:08:48.324Z,15
2017-10-11T06:09:48.383Z,15
2017-10-11T06:10:48.676Z,15
2017-10-11T06:11:48.661Z,15
2017-10-11T06:12:48.649Z,15
2017-10-11T06:13:48.641Z,20
2017-10-11T06:14:48.680Z,20
2017-10-11T06:15:49.025Z,20
2017-10-11T06:16:48.965Z,25
2017-10-11T06:17:48.954Z,25
2017-10-11T06:18:53.390Z,25
2017-10-11T06:19:48.652Z,25
2017-10-11T06:20:48.626Z,30
2017-10-11T06:21:48.310Z,30
2017-10-11T06:22:48.304Z,35
2017-10-11T06:23:48.659Z,35
2017-10-11T06:24:48.631Z,35
2017-10-11T06:25:48.387Z,40
2017-10-11T06:26:48.632Z,40
2017-10-11T06:27:48.307Z,40
2017-10-11T06:28:47.989Z,45
2017-10-11T06:29:48.312Z,45
2017-10-11T06:30:48.961Z,45
2017-10-11T06:31:48.948Z,45
2017-10-11T06:32:48.964Z,45
2017-10-11T06:33:48.310Z,45
2017-10-11T06:34:48.294Z,50
2017-10-11T06:35:48.677Z,50
2017-10-11T06:36:48.675Z,55
2017-10-11T06:37:48.625Z,55
2017-10-11T06:38:48.635Z,50
2017-10-11T06:39:48.316Z,55
2017-10-11T06:40:48.627Z,50
2017-10-11T06:41:48.620Z,50
2017-10-11T06:42:48.300Z,50
2017-10-11T06:43:48.297Z,50
2017-10-11T06:44:48.619Z,50
2017-10-11T06:45:48.626Z,50
2017-10-11T06:46:48.986Z,45
2017-10-11T06:47:48.664Z,45
2017-10-11T06:48:48.622Z,45
2017-10-11T06:49:48.365Z,45
2017-10-11T06:50:49.000Z,50
2017-10-11T06:51:48.968Z,55
2017-10-11T06:52:48.931Z,60
2017-10-11T06:53:48.625Z,65
2017-10-11T06:54:48.309Z,65
2017-10-11T06:55:48.651Z,70
2017-10-11T06:56:48.310Z,65
2017-10-11T06:57:48.283Z,70
2017-10-11T06:58:48.622Z,70
2017-10-11T06:59:48.924Z,75
2017-10-11T07:00:48.294Z,75
2017-10-11T07:01:48.619Z,80
2017-10-11T07:02:48.294Z,85
2017-10-11T07:03:48.289Z,90
2017-10-11T07:04:49.720Z,95
2017-10-11T07:05:48.618Z,95
2017-10-11T07:06:48.288Z,95
2017-10-11T07:07:48.281Z,105
2017-10-11T07:08:48.289Z,115
2017-10-11T07:09:48.286Z,110
2017-10-11T07:10:47.662Z,125
2017-10-11T07:11:48.287Z,110
2017-10-11T07:12:48.292Z,105
2017-10-11T07:13:48.291Z,105
2017-10-11T07:14:48.291Z,105
2017-10-11T07:15:48.639Z,105
2017-10-11T07:16:47.975Z,100
2017-10-11T07:17:48.926Z,100
2017-10-11T07:18:48.609Z,105
2017-10-11T07:19:48.621Z,105
2017-10-11T07:20:48.661Z,105
2017-10-11T07:21:48.610Z,105
2017-10-11T07:22:48.295Z,105
2017-10-11T07:23:47.981Z,105
2017-10-11T07:24:48.930Z,105
2017-10-11T07:25:48.299Z,105
2017-10-11T07:26:48.298Z,105
2017-10-11T07:27:48.293Z,110
2017-10-11T07:28:47.972Z,110
2017-10-11T07:29:48.611Z,115
2017-10-11T07:30:48.703Z,120
2017-10-11T07:31:48.292Z,120
2017-10-11T07:32:48.296Z,125
2017-10-11T07:33:47.656Z,125
2017-10-11T07:34:48.916Z,130
2017-10-11T07:35:48.994Z,140
2017-10-11T07:36:47.985Z,165
2017-10-11T07:37:48.639Z,175
2017-10-11T07:38:48.297Z,165
2017-10-11T07:39:48.939Z,155
2017-10-11T07:40:48.343Z,150
2017-10-11T07:41:48.632Z,140
2017-10-11T07:42:48.941Z,135
2017-10-11T07:43:48.944Z,135
2017-10-11T07:44:48.302Z,135
2017-10-11T07:45:48.357Z,135
2017-10-11T07:46:48.637Z,135
2017-10-11T07:47:48.979Z,140
2017-10-11T07:48:48.317Z,135
2017-10-11T07:49:51.860Z,135
2017-10-11T07:50:48.659Z,135
2017-10-11T07:51:48.363Z,135
2017-10-11T07:52:48.640Z,135
2017-10-11T07:53:48.312Z,140
2017-10-11T07:54:49.458Z,155
2017-10-11T07:55:49.044Z,160
2017-10-11T07:56:48.010Z,160
2017-10-11T07:57:48.642Z,160
2017-10-11T07:58:48.318Z,160
2017-10-11T07:59:48.643Z,155
2017-10-11T08:00:49.993Z,155
2017-10-11T08:01:48.332Z,155
2017-10-11T08:02:48.643Z,150
2017-10-11T08:03:48.005Z,160
2017-10-11T08:04:48.337Z,160
2017-10-11T08:05:52.983Z,160
2017-10-11T08:06:48.016Z,160
2017-10-11T08:07:48.334Z,160
2017-10-11T08:08:48.337Z,165
2017-10-11T08:09:48.332Z,170
2017-10-11T08:10:48.711Z,175
2017-10-11T08:11:48.343Z,170
2017-10-11T08:12:48.658Z,170
2017-10-11T08:13:48.673Z,170
2017-10-11T08:14:48.983Z,175
2017-10-11T08:15:48.683Z,175
2017-10-11T08:16:48.346Z,180
2017-10-11T08:17:48.990Z,190
2017-10-11T08:18:48.997Z,185
2017-10-11T08:19:48.340Z,185
2017-10-11T08:20:49.293Z,180
2017-10-11T08:21:48.666Z,180
2017-10-11T08:22:48.352Z,180
2017-10-11T08:23:48.675Z,185
2017-10-11T08:24:48.664Z,185
2017-10-11T08:25:48.675Z,185
2017-10-11T08:26:48.691Z,190
2017-10-11T08:27:48.993Z,190
2017-10-11T08:28:48.365Z,190
2017-10-11T08:29:47.720Z,195
2017-10-11T08:30:49.013Z,195
2017-10-11T08:31:48.699Z,190
2017-10-11T08:32:49.018Z,190
2017-10-11T08:33:48.705Z,185
2017-10-11T08:34:49.015Z,185
2017-10-11T08:35:48.992Z,185
2017-10-11T08:36:48.381Z,180
2017-10-11T08:37:48.398Z,185
2017-10-11T08:38:48.385Z,185
2017-10-11T08:39:48.710Z,200
2017-10-11T08:40:49.027Z,205
2017-10-11T08:41:48.375Z,210
2017-10-11T08:42:48.406Z,215
2017-10-11T08:43:49.032Z,215
2017-10-11T08:44:48.389Z,210
2017-10-11T08:45:48.428Z,205
2017-10-11T08:46:49.033Z,205
2017-10-11T08:47:48.728Z,205
2017-10-11T08:48:48.386Z,200
2017-10-11T08:49:48.730Z,195
2017-10-11T08:50:48.141Z,185
2017-10-11T08:51:53.773Z,185
2017-10-11T08:52:48.397Z,195
2017-10-11T08:53:48.400Z,205
2017-10-11T08:54:48.414Z,205
2017-10-11T08:55:48.447Z,200
2017-10-11T08:56:47.778Z,185
2017-10-11T08:57:48.108Z,180
2017-10-11T08:58:48.732Z,185
2017-10-11T08:59:49.072Z,185
2017-10-11T09:00:48.747Z,180
2017-10-11T09:01:48.117Z,175
2017-10-11T09:02:48.103Z,180
2017-10-11T09:03:48.748Z,185
2017-10-11T09:04:48.421Z,185
2017-10-11T09:05:48.496Z,185
2017-10-11T09:06:50.649Z,190
2017-10-11T09:07:48.126Z,190
2017-10-11T09:08:48.759Z,195
2017-10-11T09:09:48.768Z,200
2017-10-11T09:10:48.508Z,205
2017-10-11T09:11:48.456Z,205
2017-10-11T09:12:48.774Z,210
2017-10-11T09:13:48.453Z,215
2017-10-11T09:14:48.451Z,220
2017-10-11T09:15:48.790Z,235
2017-10-11T09:16:48.777Z,220
2017-10-11T09:17:49.123Z,220
2017-10-11T09:18:48.487Z,255
2017-10-11T09:19:48.796Z,235
2017-10-11T09:20:48.512Z,235
2017-10-11T09:21:48.823Z,275
2017-10-11T09:22:48.471Z,240
2017-10-11T09:23:48.794Z,235
2017-10-11T09:24:48.159Z,240
2017-10-11T09:25:48.209Z,235
2017-10-11T09:26:48.820Z,215
2017-10-11T09:27:48.181Z,200
2017-10-11T09:28:49.138Z,195
2017-10-11T09:29:48.819Z,190
2017-10-11T09:30:48.852Z,185
2017-10-11T09:31:48.496Z,190
2017-10-11T09:32:48.503Z,190
2017-10-11T09:33:49.157Z,200
2017-10-11T09:34:48.522Z,190
2017-10-11T09:35:48.900Z,190
2017-10-11T09:36:49.289Z,195
2017-10-11T09:37:48.213Z,240
2017-10-11T09:38:48.844Z,195
2017-10-11T09:39:48.846Z,195
2017-10-11T09:40:48.886Z,200
2017-10-11T09:41:48.529Z,220
2017-10-11T09:42:48.845Z,275
2017-10-11T09:43:48.852Z,245
2017-10-11T09:44:48.884Z,200
2017-10-11T09:45:48.902Z,195
2017-10-11T09:46:48.543Z,195
2017-10-11T09:47:48.863Z,195
2017-10-11T09:48:48.235Z,190
2017-10-11T09:49:48.549Z,180
2017-10-11T09:50:48.897Z,185
2017-10-11T09:51:49.135Z,185
2017-10-11T09:52:48.567Z,190
2017-10-11T09:53:48.568Z,190
2017-10-11T09:54:49.214Z,190
2017-10-11T09:55:48.930Z,185
2017-10-11T09:56:48.562Z,185
2017-10-11T09:57:48.247Z,180
2017-10-11T09:58:49.225Z,180
2017-10-11T09:59:49.214Z,175
2017-10-11T10:00:48.955Z,170
2017-10-11T10:01:48.904Z,175
2017-10-11T10:02:48.598Z,175
2017-10-11T10:03:48.586Z,185
2017-10-11T10:04:48.264Z,185
2017-10-11T10:05:48.678Z,185
2017-10-11T10:06:49.943Z,190
2017-10-11T10:07:48.928Z,190
2017-10-11T10:08:48.597Z,190
2017-10-11T10:09:48.595Z,195
2017-10-11T10:10:48.336Z,200
2017-10-11T10:11:48.937Z,275
2017-10-11T10:12:48.924Z,280
2017-10-11T10:13:49.268Z,275
2017-10-11T10:14:48.617Z,265
2017-10-11T10:15:48.693Z,255
2017-10-11T10:16:49.292Z,245
2017-10-11T10:17:48.946Z,235
2017-10-11T10:18:48.944Z,215
2017-10-11T10:19:48.638Z,215
2017-10-11T10:20:48.634Z,225
2017-10-11T10:21:48.947Z,230
2017-10-11T10:22:51.240Z,230
2017-10-11T10:23:48.323Z,215
2017-10-11T10:24:49.288Z,200
2017-10-11T10:25:48.679Z,195
2017-10-11T10:26:48.338Z,200
2017-10-11T10:27:49.308Z,205
2017-10-11T10:28:48.976Z,205
2017-10-11T10:29:48.985Z,215
2017-10-11T10:30:49.067Z,210
2017-10-11T10:31:48.677Z,200
2017-10-11T10:32:48.679Z,200
2017-10-11T10:33:49.008Z,200
2017-10-11T10:34:49.332Z,205
2017-10-11T10:35:49.325Z,205
2017-10-11T10:36:48.680Z,205
2017-10-11T10:37:54.439Z,210
2017-10-11T10:38:48.691Z,215
2017-10-11T10:39:48.682Z,215
2017-10-11T10:40:48.713Z,215
2017-10-11T10:41:49.343Z,215
2017-10-11T10:42:49.045Z,215
2017-10-11T10:43:48.701Z,215
2017-10-11T10:44:49.025Z,215
2017-10-11T10:45:48.731Z,215
2017-10-11T10:46:49.346Z,215
2017-10-11T10:47:49.353Z,220
2017-10-11T10:48:48.385Z,225
2017-10-11T10:49:49.348Z,225
2017-10-11T10:50:48.798Z,225
2017-10-11T10:51:48.716Z,230
2017-10-11T10:52:49.053Z,225
2017-10-11T10:53:49.094Z,225
2017-10-11T10:54:48.800Z,225
2017-10-11T10:55:48.720Z,245
2017-10-11T10:56:49.050Z,230
2017-10-11T10:57:49.060Z,230
2017-10-11T10:58:49.057Z,230
2017-10-11T10:59:48.774Z,225
2017-10-11T11:00:48.424Z,225
2017-10-11T11:01:48.766Z,220
2017-10-11T11:02:49.388Z,215
2017-10-11T11:03:49.069Z,210
2017-10-11T11:04:49.087Z,215
2017-10-11T11:05:49.093Z,235
2017-10-11T11:06:48.772Z,265
2017-10-11T11:07:50.997Z,270
2017-10-11T11:08:49.447Z,270
2017-10-11T11:09:49.431Z,275
2017-10-11T11:10:48.453Z,280
2017-10-11T11:11:48.769Z,275
2017-10-11T11:12:48.773Z,285
2017-10-11T11:13:49.443Z,250
2017-10-11T11:14:48.785Z,245
2017-10-11T11:15:48.824Z,245
2017-10-11T11:16:48.471Z,275
2017-10-11T11:17:49.438Z,280
2017-10-11T11:18:49.448Z,285
2017-10-11T11:19:48.831Z,255
2017-10-11T11:20:49.516Z,245
2017-10-11T11:21:49.468Z,240
2017-10-11T11:22:49.118Z,235
2017-10-11T11:23:48.854Z,220
2017-10-11T11:24:48.925Z,210
2017-10-11T11:25:49.723Z,210
2017-10-11T11:26:48.838Z,215
2017-10-11T11:27:48.828Z,225
2017-10-11T11:28:49.513Z,225
2017-10-11T11:29:49.158Z,225
2017-10-11T11:30:49.552Z,225
2017-10-11T11:31:48.527Z,225
2017-10-11T11:32:49.168Z,225
2017-10-11T11:33:48.520Z,230
2017-10-11T11:34:49.484Z,235
2017-10-11T11:35:48.610Z,230
2017-10-11T11:36:49.183Z,225
2017-10-11T11:37:53.913Z,220
2017-10-11T11:38:49.507Z,225
2017-10-11T11:39:49.180Z,210
2017-10-11T11:40:48.943Z,210
2017-10-11T11:41:49.058Z,210
2017-10-11T11:42:48.547Z,210
2017-10-11T11:43:48.894Z,210
2017-10-11T11:44:49.564Z,210
2017-10-11T11:45:48.935Z,215
2017-10-11T11:46:48.584Z,210
2017-10-11T11:47:49.231Z,240
2017-10-11T11:48:49.294Z,250
2017-10-11T11:49:49.231Z,220
2017-10-11T11:50:49.238Z,255
2017-10-11T11:51:49.234Z,245
2017-10-11T11:52:49.563Z,215
2017-10-11T11:53:49.004Z,220
2017-10-11T11:54:49.227Z,205
2017-10-11T11:55:48.917Z,210
2017-10-11T11:56:49.564Z,215
2017-10-11T11:57:49.304Z,215
2017-10-11T11:58:48.923Z,235
2017-10-11T11:59:48.953Z,230
2017-10-11T12:00:48.953Z,240
2017-10-11T12:01:48.933Z,235
2017-10-11T12:02:49.264Z,220
2017-10-11T12:03:48.938Z,225
2017-10-11T12:04:49.259Z,205
2017-10-11T12:05:49.326Z,220
2017-10-11T12:06:49.273Z,205
2017-10-11T12:07:49.297Z,230
2017-10-11T12:08:50.315Z,230
2017-10-11T12:09:49.281Z,225
2017-10-11T12:10:48.639Z,235
2017-10-11T12:11:48.962Z,235
2017-10-11T12:12:49.292Z,225
2017-10-11T12:13:49.303Z,195
2017-10-11T12:14:49.305Z,190
2017-10-11T12:15:49.035Z,195
2017-10-11T12:16:49.306Z,195
2017-10-11T12:17:49.633Z,210
2017-10-11T12:18:49.302Z,240
2017-10-11T12:19:49.327Z,245
2017-10-11T12:20:48.690Z,245
2017-10-11T12:21:49.009Z,240
2017-10-11T12:22:49.325Z,235
2017-10-11T12:23:50.384Z,235
2017-10-11T12:24:49.655Z,240
2017-10-11T12:25:49.330Z,230
2017-10-11T12:26:49.325Z,210
2017-10-11T12:27:48.383Z,210
2017-10-11T12:28:49.009Z,205
2017-10-11T12:29:49.350Z,200
2017-10-11T12:30:48.767Z,200
2017-10-11T12:31:48.695Z,205
2017-10-11T12:32:49.030Z,200
2017-10-11T12:33:49.031Z,210
2017-10-11T12:34:49.044Z,230
2017-10-11T12:35:49.357Z,240
2017-10-11T12:36:49.048Z,255
2017-10-11T12:37:49.690Z,220
2017-10-11T12:38:52.471Z,220
2017-10-11T12:39:49.369Z,220
2017-10-11T12:40:49.750Z,220
2017-10-11T12:41:49.696Z,215
2017-10-11T12:42:48.421Z,210
2017-10-11T12:43:49.140Z,205
2017-10-11T12:44:49.059Z,200
2017-10-11T12:45:49.772Z,195
2017-10-11T12:46:49.411Z,195
2017-10-11T12:47:49.740Z,195
2017-10-11T12:48:49.072Z,195
2017-10-11T12:49:49.415Z,190
2017-10-11T12:50:49.445Z,190
2017-10-11T12:51:49.759Z,185
2017-10-11T12:52:49.729Z,180
2017-10-11T12:53:49.117Z,180
2017-10-11T12:54:49.108Z,190
2017-10-11T12:55:48.838Z,190
2017-10-11T12:56:49.104Z,185
2017-10-11T12:57:49.773Z,185
2017-10-11T12:58:49.430Z,185
2017-10-11T12:59:49.454Z,180
2017-10-11T13:00:48.807Z,175
2017-10-11T13:01:49.127Z,175
2017-10-11T13:02:49.433Z,175
2017-10-11T13:03:48.801Z,175
2017-10-11T13:04:49.451Z,195
2017-10-11T13:05:49.790Z,175
2017-10-11T13:06:49.891Z,190
2017-10-11T13:07:49.476Z,195
2017-10-11T13:08:51.321Z,205
2017-10-11T13:09:49.807Z,235
2017-10-11T13:10:49.175Z,235
2017-10-11T13:11:49.459Z,240
2017-10-11T13:12:49.144Z,240
2017-10-11T13:13:48.829Z,225
2017-10-11T13:14:49.170Z,205
2017-10-11T13:15:48.961Z,205
2017-10-11T13:16:49.548Z,205
2017-10-11T13:17:49.479Z,200
2017-10-11T13:18:49.810Z,200
2017-10-11T13:19:49.167Z,225
2017-10-11T13:20:49.185Z,225
2017-10-11T13:21:49.829Z,210
2017-10-11T13:22:48.869Z,195
2017-10-11T13:23:49.520Z,185
2017-10-11T13:24:51.122Z,180
2017-10-11T13:25:49.193Z,185
2017-10-11T13:26:49.534Z,180
2017-10-11T13:27:49.516Z,175
2017-10-11T13:28:49.530Z,175
2017-10-11T13:29:49.879Z,170
2017-10-11T13:30:49.243Z,165
2017-10-11T13:31:49.245Z,165
2017-10-11T13:32:49.538Z,170
2017-10-11T13:33:49.548Z,175
2017-10-11T13:34:49.534Z,180
2017-10-11T13:35:49.865Z,195
2017-10-11T13:36:49.552Z,215
2017-10-11T13:37:49.238Z,205
2017-10-11T13:38:49.248Z,200
2017-10-11T13:39:50.805Z,185
2017-10-11T13:40:49.272Z,185
2017-10-11T13:41:49.563Z,185
2017-10-11T13:42:49.255Z,170
2017-10-11T13:43:49.574Z,170
2017-10-11T13:44:48.922Z,170
2017-10-11T13:45:49.270Z,175
2017-10-11T13:46:49.581Z,195
2017-10-11T13:47:49.912Z,185
2017-10-11T13:48:49.269Z,195
2017-10-11T13:49:49.265Z,190
2017-10-11T13:50:49.936Z,180
2017-10-11T13:51:48.946Z,175
2017-10-11T13:52:49.279Z,165
2017-10-11T13:53:49.598Z,160
2017-10-11T13:54:49.301Z,160
2017-10-11T13:55:49.633Z,160
2017-10-11T13:56:49.603Z,155
2017-10-11T13:57:49.938Z,145
2017-10-11T13:58:49.607Z,140
2017-10-11T13:59:49.626Z,140
2017-10-11T14:00:49.662Z,135
2017-10-11T14:01:48.975Z,130
2017-10-11T14:02:49.616Z,130
2017-10-11T14:03:49.619Z,125
2017-10-11T14:04:49.654Z,125
2017-10-11T14:05:49.656Z,135
2017-10-11T14:06:48.980Z,140
2017-10-11T14:07:49.311Z,145
2017-10-11T14:08:49.626Z,140
2017-10-11T14:09:51.264Z,135
2017-10-11T14:10:49.382Z,140
2017-10-11T14:11:49.337Z,135
2017-10-11T14:12:49.967Z,140
2017-10-11T14:13:49.658Z,165